sensor_id;sensor_type;location;lat;lon;timestamp;P1;durP1;ratioP1;P2;durP2;ratioP2
61003;SDS011;46889;37.310;13.582;2023-04-03T00:00:31;4.00;;;0.90;;
61003;SDS011;46889;37.310;13.582;2023-04-03T00:02:57;8.05;;;1.20;;
61003;SDS011;46889;37.310;13.582;2023-04-03T00:05:24;9.15;;;1.67;;
61003;SDS011;46889;37.310;13.582;2023-04-03T00:07:50;8.57;;;1.40;;
61003;SDS011;46889;37.310;13.582;2023-04-03T00:10:16;7.15;;;1.20;;
61003;SDS011;46889;37.310;13.582;2023-04-03T00:12:42;6.83;;;1.00;;
61003;SDS011;46889;37.310;13.582;2023-04-03T00:15:08;5.78;;;1.20;;
61003;SDS011;46889;37.310;13.582;2023-04-03T00:17:35;10.95;;;1.20;;
61003;SDS011;46889;37.310;13.582;2023-04-03T00:20:01;10.20;;;1.52;;
61003;SDS011;46889;37.310;13.582;2023-04-03T00:22:28;4.65;;;1.02;;
61003;SDS011;46889;37.310;13.582;2023-04-03T00:24:55;7.80;;;1.40;;
61003;SDS011;46889;37.310;13.582;2023-04-03T00:27:21;8.70;;;1.40;;
61003;SDS011;46889;37.310;13.582;2023-04-03T00:29:47;8.57;;;1.00;;
61003;SDS011;46889;37.310;13.582;2023-04-03T00:32:13;5.00;;;0.90;;
61003;SDS011;46889;37.310;13.582;2023-04-03T00:34:39;7.47;;;1.00;;
61003;SDS011;46889;37.310;13.582;2023-04-03T00:37:05;4.55;;;1.13;;
61003;SDS011;46889;37.310;13.582;2023-04-03T00:39:32;8.45;;;1.08;;
61003;SDS011;46889;37.310;13.582;2023-04-03T00:41:59;8.55;;;0.90;;
61003;SDS011;46889;37.310;13.582;2023-04-03T00:47:00;7.55;;;1.33;;
61003;SDS011;46889;37.310;13.582;2023-04-03T00:49:29;8.05;;;1.10;;
61003;SDS011;46889;37.310;13.582;2023-04-03T00:51:55;5.00;;;0.95;;
61003;SDS011;46889;37.310;13.582;2023-04-03T00:54:22;4.80;;;0.98;;
61003;SDS011;46889;37.310;13.582;2023-04-03T00:56:49;6.30;;;1.20;;
61003;SDS011;46889;37.310;13.582;2023-04-03T00:59:18;8.75;;;1.20;;
61003;SDS011;46889;37.310;13.582;2023-04-03T01:01:51;6.35;;;1.35;;
61003;SDS011;46889;37.310;13.582;2023-04-03T01:04:40;5.38;;;1.00;;
61003;SDS011;46889;37.310;13.582;2023-04-03T01:07:08;5.57;;;1.00;;
61003;SDS011;46889;37.310;13.582;2023-04-03T01:09:38;5.43;;;1.10;;
61003;SDS011;46889;37.310;13.582;2023-04-03T01:12:20;9.82;;;1.42;;
61003;SDS011;46889;37.310;13.582;2023-04-03T01:14:56;4.38;;;0.70;;
61003;SDS011;46889;37.310;13.582;2023-04-03T01:20:14;8.38;;;1.10;;
61003;SDS011;46889;37.310;13.582;2023-04-03T01:25:52;5.10;;;0.82;;
61003;SDS011;46889;37.310;13.582;2023-04-03T01:28:30;10.07;;;0.90;;
61003;SDS011;46889;37.310;13.582;2023-04-03T01:33:49;5.13;;;0.70;;
61003;SDS011;46889;37.310;13.582;2023-04-03T01:36:22;7.78;;;1.33;;
61003;SDS011;46889;37.310;13.582;2023-04-03T01:38:51;6.97;;;1.10;;
61003;SDS011;46889;37.310;13.582;2023-04-03T01:41:20;7.47;;;1.30;;
61003;SDS011;46889;37.310;13.582;2023-04-03T01:43:47;9.45;;;1.08;;
61003;SDS011;46889;37.310;13.582;2023-04-03T01:46:14;6.40;;;1.10;;
61003;SDS011;46889;37.310;13.582;2023-04-03T01:48:44;8.82;;;1.17;;
61003;SDS011;46889;37.310;13.582;2023-04-03T01:51:11;7.68;;;1.02;;
61003;SDS011;46889;37.310;13.582;2023-04-03T01:53:38;8.95;;;1.25;;
61003;SDS011;46889;37.310;13.582;2023-04-03T01:56:08;6.70;;;1.02;;
61003;SDS011;46889;37.310;13.582;2023-04-03T01:58:34;5.53;;;1.53;;
61003;SDS011;46889;37.310;13.582;2023-04-03T02:01:01;10.38;;;1.08;;
61003;SDS011;46889;37.310;13.582;2023-04-03T02:03:31;7.93;;;1.00;;
61003;SDS011;46889;37.310;13.582;2023-04-03T02:05:58;6.68;;;1.02;;
61003;SDS011;46889;37.310;13.582;2023-04-03T02:08:30;4.65;;;0.93;;
61003;SDS011;46889;37.310;13.582;2023-04-03T02:10:57;3.83;;;1.00;;
61003;SDS011;46889;37.310;13.582;2023-04-03T02:13:23;4.63;;;1.13;;
61003;SDS011;46889;37.310;13.582;2023-04-03T02:15:53;4.70;;;0.70;;
61003;SDS011;46889;37.310;13.582;2023-04-03T02:18:21;5.13;;;0.95;;
61003;SDS011;46889;37.310;13.582;2023-04-03T02:20:47;2.17;;;0.68;;
61003;SDS011;46889;37.310;13.582;2023-04-03T02:23:14;5.57;;;0.98;;
61003;SDS011;46889;37.310;13.582;2023-04-03T02:25:40;6.60;;;0.93;;
61003;SDS011;46889;37.310;13.582;2023-04-03T02:28:06;4.80;;;0.70;;
61003;SDS011;46889;37.310;13.582;2023-04-03T02:30:32;3.28;;;0.80;;
61003;SDS011;46889;37.310;13.582;2023-04-03T02:32:58;4.55;;;0.82;;
61003;SDS011;46889;37.310;13.582;2023-04-03T02:35:24;6.40;;;0.80;;
61003;SDS011;46889;37.310;13.582;2023-04-03T02:37:50;7.85;;;0.98;;
61003;SDS011;46889;37.310;13.582;2023-04-03T02:40:16;7.57;;;1.27;;
61003;SDS011;46889;37.310;13.582;2023-04-03T02:42:44;4.10;;;1.00;;
61003;SDS011;46889;37.310;13.582;2023-04-03T02:45:10;6.65;;;1.27;;
61003;SDS011;46889;37.310;13.582;2023-04-03T02:47:36;5.63;;;1.57;;
61003;SDS011;46889;37.310;13.582;2023-04-03T02:50:02;2.67;;;1.05;;
61003;SDS011;46889;37.310;13.582;2023-04-03T02:52:28;4.10;;;0.90;;
61003;SDS011;46889;37.310;13.582;2023-04-03T02:54:54;3.58;;;0.80;;
61003;SDS011;46889;37.310;13.582;2023-04-03T02:57:21;2.60;;;0.88;;
61003;SDS011;46889;37.310;13.582;2023-04-03T02:59:50;5.75;;;0.98;;
61003;SDS011;46889;37.310;13.582;2023-04-03T03:02:16;9.07;;;1.05;;
61003;SDS011;46889;37.310;13.582;2023-04-03T03:04:44;5.37;;;0.90;;
61003;SDS011;46889;37.310;13.582;2023-04-03T03:07:10;3.92;;;1.17;;
61003;SDS011;46889;37.310;13.582;2023-04-03T03:09:36;5.43;;;1.20;;
61003;SDS011;46889;37.310;13.582;2023-04-03T03:12:02;9.13;;;1.27;;
61003;SDS011;46889;37.310;13.582;2023-04-03T03:14:28;3.25;;;0.80;;
61003;SDS011;46889;37.310;13.582;2023-04-03T03:16:54;4.22;;;0.88;;
61003;SDS011;46889;37.310;13.582;2023-04-03T03:19:20;5.53;;;0.95;;
61003;SDS011;46889;37.310;13.582;2023-04-03T03:21:46;2.47;;;1.08;;
61003;SDS011;46889;37.310;13.582;2023-04-03T03:24:12;6.93;;;1.03;;
61003;SDS011;46889;37.310;13.582;2023-04-03T03:26:39;3.33;;;0.90;;
61003;SDS011;46889;37.310;13.582;2023-04-03T03:29:05;3.67;;;0.73;;
61003;SDS011;46889;37.310;13.582;2023-04-03T03:31:31;4.85;;;1.10;;
61003;SDS011;46889;37.310;13.582;2023-04-03T03:33:57;5.00;;;1.10;;
61003;SDS011;46889;37.310;13.582;2023-04-03T03:36:23;4.93;;;0.90;;
61003;SDS011;46889;37.310;13.582;2023-04-03T03:41:17;4.57;;;1.20;;
61003;SDS011;46889;37.310;13.582;2023-04-03T03:43:43;3.33;;;0.75;;
61003;SDS011;46889;37.310;13.582;2023-04-03T03:46:12;5.63;;;1.10;;
61003;SDS011;46889;37.310;13.582;2023-04-03T03:48:38;3.75;;;1.02;;
61003;SDS011;46889;37.310;13.582;2023-04-03T03:51:04;4.18;;;0.93;;
61003;SDS011;46889;37.310;13.582;2023-04-03T03:53:31;4.28;;;1.08;;
61003;SDS011;46889;37.310;13.582;2023-04-03T03:55:57;4.80;;;0.85;;
61003;SDS011;46889;37.310;13.582;2023-04-03T03:58:23;6.28;;;1.08;;
61003;SDS011;46889;37.310;13.582;2023-04-03T04:00:49;5.60;;;1.10;;
61003;SDS011;46889;37.310;13.582;2023-04-03T04:03:16;8.02;;;1.15;;
61003;SDS011;46889;37.310;13.582;2023-04-03T04:05:43;4.05;;;0.90;;
61003;SDS011;46889;37.310;13.582;2023-04-03T04:08:09;9.05;;;1.10;;
61003;SDS011;46889;37.310;13.582;2023-04-03T04:10:35;11.82;;;1.40;;
61003;SDS011;46889;37.310;13.582;2023-04-03T04:13:04;5.43;;;1.10;;
61003;SDS011;46889;37.310;13.582;2023-04-03T04:15:30;3.42;;;0.80;;
61003;SDS011;46889;37.310;13.582;2023-04-03T04:17:56;4.22;;;0.90;;
61003;SDS011;46889;37.310;13.582;2023-04-03T04:20:22;7.03;;;1.05;;
61003;SDS011;46889;37.310;13.582;2023-04-03T04:22:48;4.67;;;0.90;;
61003;SDS011;46889;37.310;13.582;2023-04-03T04:25:16;7.07;;;1.40;;
61003;SDS011;46889;37.310;13.582;2023-04-03T04:27:42;4.60;;;0.88;;
61003;SDS011;46889;37.310;13.582;2023-04-03T04:30:08;3.63;;;0.90;;
61003;SDS011;46889;37.310;13.582;2023-04-03T04:32:37;4.78;;;0.93;;
61003;SDS011;46889;37.310;13.582;2023-04-03T04:35:03;4.68;;;0.90;;
61003;SDS011;46889;37.310;13.582;2023-04-03T04:39:56;4.57;;;1.20;;
61003;SDS011;46889;37.310;13.582;2023-04-03T04:42:22;4.97;;;1.00;;
61003;SDS011;46889;37.310;13.582;2023-04-03T04:44:48;4.20;;;1.00;;
61003;SDS011;46889;37.310;13.582;2023-04-03T04:47:15;6.80;;;1.00;;
61003;SDS011;46889;37.310;13.582;2023-04-03T04:49:41;1.57;;;0.80;;
61003;SDS011;46889;37.310;13.582;2023-04-03T04:52:07;6.67;;;1.50;;
61003;SDS011;46889;37.310;13.582;2023-04-03T04:54:33;7.93;;;0.90;;
61003;SDS011;46889;37.310;13.582;2023-04-03T04:56:59;4.13;;;1.10;;
61003;SDS011;46889;37.310;13.582;2023-04-03T04:59:25;7.10;;;0.90;;
61003;SDS011;46889;37.310;13.582;2023-04-03T05:01:52;2.72;;;0.80;;
61003;SDS011;46889;37.310;13.582;2023-04-03T05:04:18;4.72;;;1.40;;
61003;SDS011;46889;37.310;13.582;2023-04-03T05:06:45;3.40;;;1.00;;
61003;SDS011;46889;37.310;13.582;2023-04-03T05:09:11;4.40;;;1.05;;
61003;SDS011;46889;37.310;13.582;2023-04-03T05:11:37;3.20;;;1.00;;
61003;SDS011;46889;37.310;13.582;2023-04-03T05:14:03;5.43;;;1.08;;
61003;SDS011;46889;37.310;13.582;2023-04-03T05:16:32;3.15;;;1.05;;
61003;SDS011;46889;37.310;13.582;2023-04-03T05:18:58;3.75;;;1.30;;
61003;SDS011;46889;37.310;13.582;2023-04-03T05:21:25;5.72;;;1.20;;
61003;SDS011;46889;37.310;13.582;2023-04-03T05:23:53;4.68;;;1.00;;
61003;SDS011;46889;37.310;13.582;2023-04-03T05:26:19;5.93;;;1.17;;
61003;SDS011;46889;37.310;13.582;2023-04-03T05:31:12;4.50;;;1.37;;
61003;SDS011;46889;37.310;13.582;2023-04-03T05:33:38;3.92;;;0.90;;
61003;SDS011;46889;37.310;13.582;2023-04-03T05:36:06;3.38;;;1.33;;
61003;SDS011;46889;37.310;13.582;2023-04-03T05:38:32;3.60;;;1.48;;
61003;SDS011;46889;37.310;13.582;2023-04-03T05:40:59;5.93;;;1.20;;
61003;SDS011;46889;37.310;13.582;2023-04-03T05:43:26;9.07;;;1.75;;
61003;SDS011;46889;37.310;13.582;2023-04-03T05:45:52;10.38;;;1.10;;
61003;SDS011;46889;37.310;13.582;2023-04-03T05:48:18;3.63;;;1.13;;
61003;SDS011;46889;37.310;13.582;2023-04-03T05:50:44;9.30;;;1.17;;
61003;SDS011;46889;37.310;13.582;2023-04-03T05:53:13;3.25;;;0.98;;
61003;SDS011;46889;37.310;13.582;2023-04-03T05:55:47;6.53;;;1.00;;
61003;SDS011;46889;37.310;13.582;2023-04-03T05:58:13;5.27;;;1.60;;
61003;SDS011;46889;37.310;13.582;2023-04-03T06:00:39;6.55;;;0.90;;
61003;SDS011;46889;37.310;13.582;2023-04-03T06:03:07;5.40;;;1.33;;
61003;SDS011;46889;37.310;13.582;2023-04-03T06:05:33;3.10;;;1.10;;
61003;SDS011;46889;37.310;13.582;2023-04-03T06:08:00;4.10;;;1.00;;
61003;SDS011;46889;37.310;13.582;2023-04-03T06:10:27;13.10;;;1.52;;
61003;SDS011;46889;37.310;13.582;2023-04-03T06:12:53;6.77;;;1.10;;
61003;SDS011;46889;37.310;13.582;2023-04-03T06:15:24;6.25;;;1.33;;
61003;SDS011;46889;37.310;13.582;2023-04-03T06:17:51;5.80;;;1.05;;
61003;SDS011;46889;37.310;13.582;2023-04-03T06:20:17;12.57;;;1.40;;
61003;SDS011;46889;37.310;13.582;2023-04-03T06:22:43;5.55;;;1.35;;
61003;SDS011;46889;37.310;13.582;2023-04-03T06:25:10;6.47;;;1.25;;
61003;SDS011;46889;37.310;13.582;2023-04-03T06:27:36;6.32;;;1.05;;
61003;SDS011;46889;37.310;13.582;2023-04-03T06:30:02;4.80;;;1.13;;
61003;SDS011;46889;37.310;13.582;2023-04-03T06:32:28;10.65;;;1.25;;
61003;SDS011;46889;37.310;13.582;2023-04-03T06:34:56;5.07;;;0.95;;
61003;SDS011;46889;37.310;13.582;2023-04-03T06:37:22;7.72;;;1.52;;
61003;SDS011;46889;37.310;13.582;2023-04-03T06:39:51;5.63;;;0.95;;
61003;SDS011;46889;37.310;13.582;2023-04-03T06:42:18;2.60;;;0.80;;
61003;SDS011;46889;37.310;13.582;2023-04-03T06:44:44;2.25;;;0.60;;
61003;SDS011;46889;37.310;13.582;2023-04-03T06:47:11;6.07;;;0.80;;
61003;SDS011;46889;37.310;13.582;2023-04-03T06:49:38;4.82;;;1.00;;
61003;SDS011;46889;37.310;13.582;2023-04-03T06:52:05;3.17;;;1.08;;
61003;SDS011;46889;37.310;13.582;2023-04-03T06:54:33;4.47;;;1.02;;
61003;SDS011;46889;37.310;13.582;2023-04-03T06:56:59;31.38;;;2.70;;
61003;SDS011;46889;37.310;13.582;2023-04-03T06:59:26;2.92;;;0.80;;
61003;SDS011;46889;37.310;13.582;2023-04-03T07:01:53;2.28;;;0.73;;
61003;SDS011;46889;37.310;13.582;2023-04-03T07:04:19;4.25;;;1.00;;
61003;SDS011;46889;37.310;13.582;2023-04-03T07:06:46;2.03;;;0.80;;
61003;SDS011;46889;37.310;13.582;2023-04-03T07:09:14;2.25;;;0.70;;
61003;SDS011;46889;37.310;13.582;2023-04-03T07:11:40;5.28;;;1.00;;
61003;SDS011;46889;37.310;13.582;2023-04-03T07:14:06;4.30;;;1.10;;
61003;SDS011;46889;37.310;13.582;2023-04-03T07:16:33;3.95;;;1.00;;
61003;SDS011;46889;37.310;13.582;2023-04-03T07:19:00;4.80;;;0.95;;
61003;SDS011;46889;37.310;13.582;2023-04-03T07:21:27;5.70;;;1.35;;
61003;SDS011;46889;37.310;13.582;2023-04-03T07:23:53;2.35;;;0.98;;
61003;SDS011;46889;37.310;13.582;2023-04-03T07:26:20;7.15;;;1.10;;
61003;SDS011;46889;37.310;13.582;2023-04-03T07:28:47;3.70;;;1.00;;
61003;SDS011;46889;37.310;13.582;2023-04-03T07:31:14;2.35;;;1.00;;
61003;SDS011;46889;37.310;13.582;2023-04-03T07:33:42;4.80;;;1.23;;
61003;SDS011;46889;37.310;13.582;2023-04-03T07:36:10;11.90;;;1.20;;
61003;SDS011;46889;37.310;13.582;2023-04-03T07:38:40;3.72;;;1.20;;
61003;SDS011;46889;37.310;13.582;2023-04-03T07:41:06;3.83;;;1.02;;
61003;SDS011;46889;37.310;13.582;2023-04-03T07:43:36;6.93;;;1.15;;
61003;SDS011;46889;37.310;13.582;2023-04-03T07:46:02;3.55;;;0.70;;
61003;SDS011;46889;37.310;13.582;2023-04-03T07:48:30;3.30;;;0.77;;
61003;SDS011;46889;37.310;13.582;2023-04-03T07:50:59;7.53;;;1.48;;
61003;SDS011;46889;37.310;13.582;2023-04-03T07:53:27;3.65;;;0.95;;
61003;SDS011;46889;37.310;13.582;2023-04-03T07:55:53;4.32;;;0.88;;
61003;SDS011;46889;37.310;13.582;2023-04-03T07:58:21;6.47;;;0.82;;
61003;SDS011;46889;37.310;13.582;2023-04-03T08:00:47;2.75;;;1.05;;
61003;SDS011;46889;37.310;13.582;2023-04-03T08:03:14;2.42;;;0.90;;
61003;SDS011;46889;37.310;13.582;2023-04-03T08:05:44;2.75;;;1.17;;
61003;SDS011;46889;37.310;13.582;2023-04-03T08:08:12;2.33;;;0.65;;
61003;SDS011;46889;37.310;13.582;2023-04-03T08:10:41;4.63;;;0.70;;
61003;SDS011;46889;37.310;13.582;2023-04-03T08:13:08;2.03;;;0.70;;
61003;SDS011;46889;37.310;13.582;2023-04-03T08:15:35;1.23;;;0.60;;
61003;SDS011;46889;37.310;13.582;2023-04-03T08:18:02;2.63;;;0.60;;
61003;SDS011;46889;37.310;13.582;2023-04-03T08:20:28;3.65;;;0.73;;
61003;SDS011;46889;37.310;13.582;2023-04-03T08:22:56;3.72;;;0.60;;
61003;SDS011;46889;37.310;13.582;2023-04-03T08:25:22;1.13;;;0.52;;
61003;SDS011;46889;37.310;13.582;2023-04-03T08:27:48;1.08;;;0.45;;
61003;SDS011;46889;37.310;13.582;2023-04-03T08:30:14;0.88;;;0.40;;
61003;SDS011;46889;37.310;13.582;2023-04-03T08:32:40;3.20;;;0.40;;
61003;SDS011;46889;37.310;13.582;2023-04-03T08:35:09;4.47;;;0.60;;
61003;SDS011;46889;37.310;13.582;2023-04-03T08:37:36;1.13;;;0.50;;
61003;SDS011;46889;37.310;13.582;2023-04-03T08:40:04;4.00;;;0.40;;
61003;SDS011;46889;37.310;13.582;2023-04-03T08:45:42;1.52;;;0.45;;
61003;SDS011;46889;37.310;13.582;2023-04-03T08:48:24;3.78;;;0.50;;
61003;SDS011;46889;37.310;13.582;2023-04-03T08:50:56;1.50;;;0.57;;
61003;SDS011;46889;37.310;13.582;2023-04-03T08:53:28;1.75;;;0.50;;
61003;SDS011;46889;37.310;13.582;2023-04-03T08:55:58;1.38;;;0.50;;
61003;SDS011;46889;37.310;13.582;2023-04-03T08:58:30;1.02;;;0.40;;
61003;SDS011;46889;37.310;13.582;2023-04-03T09:03:42;3.87;;;0.53;;
61003;SDS011;46889;37.310;13.582;2023-04-03T09:06:13;0.40;;;0.30;;
61003;SDS011;46889;37.310;13.582;2023-04-03T09:08:49;1.92;;;0.50;;
61003;SDS011;46889;37.310;13.582;2023-04-03T09:11:39;1.23;;;0.60;;
61003;SDS011;46889;37.310;13.582;2023-04-03T09:14:36;4.95;;;0.60;;
61003;SDS011;46889;37.310;13.582;2023-04-03T09:17:21;2.33;;;0.50;;
61003;SDS011;46889;37.310;13.582;2023-04-03T09:22:53;3.53;;;0.57;;
61003;SDS011;46889;37.310;13.582;2023-04-03T09:25:20;0.98;;;0.55;;
61003;SDS011;46889;37.310;13.582;2023-04-03T09:27:51;3.03;;;0.80;;
61003;SDS011;46889;37.310;13.582;2023-04-03T09:30:20;3.63;;;0.63;;
61003;SDS011;46889;37.310;13.582;2023-04-03T09:32:50;4.40;;;0.60;;
61003;SDS011;46889;37.310;13.582;2023-04-03T09:35:31;2.25;;;0.60;;
61003;SDS011;46889;37.310;13.582;2023-04-03T09:38:20;1.27;;;0.50;;
61003;SDS011;46889;37.310;13.582;2023-04-03T09:40:51;1.42;;;0.50;;
61003;SDS011;46889;37.310;13.582;2023-04-03T09:43:32;2.95;;;0.60;;
61003;SDS011;46889;37.310;13.582;2023-04-03T09:46:44;1.15;;;0.50;;
61003;SDS011;46889;37.310;13.582;2023-04-03T09:49:02;1.13;;;0.50;;
61003;SDS011;46889;37.310;13.582;2023-04-03T09:51:31;1.45;;;0.57;;
61003;SDS011;46889;37.310;13.582;2023-04-03T09:53:57;4.38;;;1.00;;
61003;SDS011;46889;37.310;13.582;2023-04-03T09:56:25;0.80;;;0.40;;
61003;SDS011;46889;37.310;13.582;2023-04-03T10:01:31;0.60;;;0.35;;
61003;SDS011;46889;37.310;13.582;2023-04-03T10:04:06;1.67;;;0.47;;
61003;SDS011;46889;37.310;13.582;2023-04-03T10:06:33;2.25;;;0.70;;
61003;SDS011;46889;37.310;13.582;2023-04-03T10:09:10;2.83;;;0.90;;
61003;SDS011;46889;37.310;13.582;2023-04-03T10:12:10;0.98;;;0.47;;
61003;SDS011;46889;37.310;13.582;2023-04-03T10:14:41;1.88;;;0.60;;
61003;SDS011;46889;37.310;13.582;2023-04-03T10:19:47;0.70;;;0.50;;
61003;SDS011;46889;37.310;13.582;2023-04-03T10:22:56;1.40;;;0.63;;
61003;SDS011;46889;37.310;13.582;2023-04-03T10:30:59;1.52;;;0.63;;
61003;SDS011;46889;37.310;13.582;2023-04-03T10:33:59;0.82;;;0.30;;
61003;SDS011;46889;37.310;13.582;2023-04-03T10:39:26;1.60;;;0.60;;
61003;SDS011;46889;37.310;13.582;2023-04-03T10:47:51;3.50;;;1.27;;
61003;SDS011;46889;37.310;13.582;2023-04-03T10:53:03;3.80;;;0.95;;
61003;SDS011;46889;37.310;13.582;2023-04-03T10:58:34;4.55;;;1.02;;
61003;SDS011;46889;37.310;13.582;2023-04-03T11:01:08;4.07;;;1.10;;
61003;SDS011;46889;37.310;13.582;2023-04-03T11:03:47;3.35;;;0.90;;
61003;SDS011;46889;37.310;13.582;2023-04-03T11:06:18;3.03;;;1.37;;
61003;SDS011;46889;37.310;13.582;2023-04-03T11:08:50;3.40;;;1.05;;
61003;SDS011;46889;37.310;13.582;2023-04-03T11:11:24;3.25;;;1.23;;
61003;SDS011;46889;37.310;13.582;2023-04-03T11:16:29;6.95;;;1.30;;
61003;SDS011;46889;37.310;13.582;2023-04-03T11:21:39;4.22;;;1.10;;
61003;SDS011;46889;37.310;13.582;2023-04-03T11:24:16;6.40;;;1.17;;
61003;SDS011;46889;37.310;13.582;2023-04-03T11:26:54;5.93;;;1.40;;
61003;SDS011;46889;37.310;13.582;2023-04-03T11:29:39;5.38;;;1.38;;
61003;SDS011;46889;37.310;13.582;2023-04-03T11:34:55;4.80;;;1.00;;
61003;SDS011;46889;37.310;13.582;2023-04-03T11:42:49;5.40;;;1.20;;
61003;SDS011;46889;37.310;13.582;2023-04-03T11:47:55;6.70;;;1.60;;
61003;SDS011;46889;37.310;13.582;2023-04-03T11:58:20;8.88;;;1.15;;
61003;SDS011;46889;37.310;13.582;2023-04-03T12:00:51;6.10;;;1.50;;
61003;SDS011;46889;37.310;13.582;2023-04-03T12:16:07;5.78;;;1.05;;
61003;SDS011;46889;37.310;13.582;2023-04-03T12:21:19;7.50;;;1.70;;
61003;SDS011;46889;37.310;13.582;2023-04-03T12:26:44;4.13;;;1.00;;
61003;SDS011;46889;37.310;13.582;2023-04-03T12:51:19;4.82;;;1.00;;
61003;SDS011;46889;37.310;13.582;2023-04-03T12:54:14;2.60;;;0.70;;
61003;SDS011;46889;37.310;13.582;2023-04-03T12:57:10;2.55;;;1.20;;
61003;SDS011;46889;37.310;13.582;2023-04-03T12:59:36;3.80;;;0.90;;
61003;SDS011;46889;37.310;13.582;2023-04-03T13:04:37;4.20;;;0.93;;
61003;SDS011;46889;37.310;13.582;2023-04-03T13:07:04;2.50;;;1.00;;
61003;SDS011;46889;37.310;13.582;2023-04-03T13:09:31;4.93;;;1.80;;
61003;SDS011;46889;37.310;13.582;2023-04-03T13:12:09;4.72;;;0.95;;
61003;SDS011;46889;37.310;13.582;2023-04-03T13:14:38;5.07;;;1.00;;
61003;SDS011;46889;37.310;13.582;2023-04-03T13:17:09;4.80;;;1.25;;
61003;SDS011;46889;37.310;13.582;2023-04-03T13:19:39;4.13;;;1.08;;
61003;SDS011;46889;37.310;13.582;2023-04-03T13:22:26;5.53;;;1.02;;
61003;SDS011;46889;37.310;13.582;2023-04-03T13:25:05;4.57;;;1.38;;
61003;SDS011;46889;37.310;13.582;2023-04-03T13:27:35;6.20;;;1.27;;
61003;SDS011;46889;37.310;13.582;2023-04-03T13:30:04;2.20;;;1.10;;
61003;SDS011;46889;37.310;13.582;2023-04-03T13:32:31;4.40;;;0.98;;
61003;SDS011;46889;37.310;13.582;2023-04-03T13:34:58;3.00;;;1.10;;
61003;SDS011;46889;37.310;13.582;2023-04-03T13:37:28;4.88;;;1.13;;
61003;SDS011;46889;37.310;13.582;2023-04-03T13:40:00;4.07;;;1.20;;
61003;SDS011;46889;37.310;13.582;2023-04-03T13:42:31;2.65;;;1.10;;
61003;SDS011;46889;37.310;13.582;2023-04-03T13:47:49;2.38;;;0.85;;
61003;SDS011;46889;37.310;13.582;2023-04-03T13:50:19;3.83;;;1.05;;
61003;SDS011;46889;37.310;13.582;2023-04-03T13:52:49;5.30;;;1.10;;
61003;SDS011;46889;37.310;13.582;2023-04-03T13:55:37;6.30;;;1.10;;
61003;SDS011;46889;37.310;13.582;2023-04-03T13:58:31;3.40;;;1.08;;
61003;SDS011;46889;37.310;13.582;2023-04-03T14:03:52;3.65;;;1.27;;
61003;SDS011;46889;37.310;13.582;2023-04-03T14:06:24;4.47;;;1.02;;
61003;SDS011;46889;37.310;13.582;2023-04-03T14:08:50;2.83;;;1.00;;
61003;SDS011;46889;37.310;13.582;2023-04-03T14:11:21;3.25;;;1.05;;
61003;SDS011;46889;37.310;13.582;2023-04-03T14:13:52;2.00;;;0.88;;
61003;SDS011;46889;37.310;13.582;2023-04-03T14:16:20;1.55;;;0.70;;
61003;SDS011;46889;37.310;13.582;2023-04-03T14:18:48;3.55;;;1.10;;
61003;SDS011;46889;37.310;13.582;2023-04-03T14:21:17;3.97;;;0.98;;
61003;SDS011;46889;37.310;13.582;2023-04-03T14:23:44;4.28;;;1.05;;
61003;SDS011;46889;37.310;13.582;2023-04-03T14:26:15;4.60;;;1.23;;
61003;SDS011;46889;37.310;13.582;2023-04-03T14:28:44;4.20;;;1.45;;
61003;SDS011;46889;37.310;13.582;2023-04-03T14:31:12;6.18;;;1.50;;
61003;SDS011;46889;37.310;13.582;2023-04-03T14:33:41;4.18;;;1.27;;
61003;SDS011;46889;37.310;13.582;2023-04-03T14:36:14;7.72;;;1.42;;
61003;SDS011;46889;37.310;13.582;2023-04-03T14:38:48;5.72;;;1.30;;
61003;SDS011;46889;37.310;13.582;2023-04-03T14:41:17;3.47;;;1.23;;
61003;SDS011;46889;37.310;13.582;2023-04-03T14:43:46;3.75;;;1.33;;
61003;SDS011;46889;37.310;13.582;2023-04-03T14:46:14;3.60;;;1.42;;
61003;SDS011;46889;37.310;13.582;2023-04-03T14:48:43;3.90;;;1.13;;
61003;SDS011;46889;37.310;13.582;2023-04-03T14:51:11;4.20;;;1.20;;
61003;SDS011;46889;37.310;13.582;2023-04-03T14:53:39;4.93;;;1.30;;
61003;SDS011;46889;37.310;13.582;2023-04-03T14:56:14;6.55;;;1.38;;
61003;SDS011;46889;37.310;13.582;2023-04-03T14:58:56;4.35;;;1.10;;
61003;SDS011;46889;37.310;13.582;2023-04-03T15:01:24;2.42;;;1.23;;
61003;SDS011;46889;37.310;13.582;2023-04-03T15:03:51;2.85;;;0.82;;
61003;SDS011;46889;37.310;13.582;2023-04-03T15:06:17;8.95;;;1.02;;
61003;SDS011;46889;37.310;13.582;2023-04-03T15:08:44;4.07;;;1.13;;
61003;SDS011;46889;37.310;13.582;2023-04-03T15:11:12;3.80;;;1.10;;
61003;SDS011;46889;37.310;13.582;2023-04-03T15:16:09;2.65;;;1.00;;
61003;SDS011;46889;37.310;13.582;2023-04-03T15:18:43;5.38;;;1.23;;
61003;SDS011;46889;37.310;13.582;2023-04-03T15:21:11;9.73;;;1.85;;
61003;SDS011;46889;37.310;13.582;2023-04-03T15:23:37;6.88;;;1.60;;
61003;SDS011;46889;37.310;13.582;2023-04-03T15:26:04;5.33;;;1.33;;
61003;SDS011;46889;37.310;13.582;2023-04-03T15:28:31;4.22;;;1.30;;
61003;SDS011;46889;37.310;13.582;2023-04-03T15:31:02;4.28;;;1.45;;
61003;SDS011;46889;37.310;13.582;2023-04-03T15:33:29;4.13;;;1.33;;
61003;SDS011;46889;37.310;13.582;2023-04-03T15:35:57;5.97;;;1.48;;
61003;SDS011;46889;37.310;13.582;2023-04-03T15:38:23;7.28;;;1.60;;
61003;SDS011;46889;37.310;13.582;2023-04-03T15:40:49;3.47;;;1.53;;
61003;SDS011;46889;37.310;13.582;2023-04-03T15:43:15;4.72;;;1.60;;
61003;SDS011;46889;37.310;13.582;2023-04-03T15:45:42;3.97;;;1.42;;
61003;SDS011;46889;37.310;13.582;2023-04-03T15:48:09;7.10;;;1.67;;
61003;SDS011;46889;37.310;13.582;2023-04-03T15:50:36;3.83;;;1.33;;
61003;SDS011;46889;37.310;13.582;2023-04-03T15:55:32;6.97;;;1.92;;
61003;SDS011;46889;37.310;13.582;2023-04-03T15:58:00;4.72;;;1.67;;
61003;SDS011;46889;37.310;13.582;2023-04-03T16:00:28;4.30;;;1.50;;
61003;SDS011;46889;37.310;13.582;2023-04-03T16:02:56;4.75;;;2.13;;
61003;SDS011;46889;37.310;13.582;2023-04-03T16:05:26;4.65;;;2.08;;
61003;SDS011;46889;37.310;13.582;2023-04-03T16:07:53;8.05;;;1.67;;
61003;SDS011;46889;37.310;13.582;2023-04-03T16:12:46;5.35;;;1.65;;
61003;SDS011;46889;37.310;13.582;2023-04-03T16:15:12;5.80;;;1.80;;
61003;SDS011;46889;37.310;13.582;2023-04-03T16:17:39;4.80;;;1.50;;
61003;SDS011;46889;37.310;13.582;2023-04-03T16:20:10;5.38;;;1.30;;
61003;SDS011;46889;37.310;13.582;2023-04-03T16:22:36;7.30;;;1.77;;
61003;SDS011;46889;37.310;13.582;2023-04-03T16:25:03;5.35;;;1.80;;
61003;SDS011;46889;37.310;13.582;2023-04-03T16:27:30;6.00;;;1.70;;
61003;SDS011;46889;37.310;13.582;2023-04-03T16:29:57;4.17;;;1.70;;
61003;SDS011;46889;37.310;13.582;2023-04-03T16:32:23;6.00;;;1.70;;
61003;SDS011;46889;37.310;13.582;2023-04-03T16:34:51;4.95;;;1.77;;
61003;SDS011;46889;37.310;13.582;2023-04-03T16:37:17;4.88;;;1.92;;
61003;SDS011;46889;37.310;13.582;2023-04-03T16:39:45;5.03;;;1.60;;
61003;SDS011;46889;37.310;13.582;2023-04-03T16:42:12;8.85;;;2.00;;
61003;SDS011;46889;37.310;13.582;2023-04-03T16:44:38;5.50;;;2.00;;
61003;SDS011;46889;37.310;13.582;2023-04-03T16:47:05;7.75;;;2.03;;
61003;SDS011;46889;37.310;13.582;2023-04-03T16:49:32;6.13;;;1.75;;
61003;SDS011;46889;37.310;13.582;2023-04-03T16:52:00;4.03;;;1.60;;
61003;SDS011;46889;37.310;13.582;2023-04-03T16:54:28;4.75;;;1.75;;
61003;SDS011;46889;37.310;13.582;2023-04-03T16:56:55;4.57;;;1.60;;